sensor_id;sensor_type;location;lat;lon;timestamp;temperature;humidity
48604;DHT22;32708;51.212;6.788;2023-03-14T00:00:50;12.60;64.70
48604;DHT22;32708;51.212;6.788;2023-03-14T00:03:16;12.60;62.20
48604;DHT22;32708;51.212;6.788;2023-03-14T00:05:42;12.60;63.30
48604;DHT22;32708;51.212;6.788;2023-03-14T00:08:08;12.50;66.30
48604;DHT22;32708;51.212;6.788;2023-03-14T00:10:36;12.50;65.40
48604;DHT22;32708;51.212;6.788;2023-03-14T00:13:02;12.60;63.80
48604;DHT22;32708;51.212;6.788;2023-03-14T00:15:28;12.60;58.70
48604;DHT22;32708;51.212;6.788;2023-03-14T00:17:54;12.50;58.60
48604;DHT22;32708;51.212;6.788;2023-03-14T00:20:21;12.60;59.30
48604;DHT22;32708;51.212;6.788;2023-03-14T00:22:47;12.60;56.90
48604;DHT22;32708;51.212;6.788;2023-03-14T00:25:13;12.50;68.00
48604;DHT22;32708;51.212;6.788;2023-03-14T00:27:39;12.50;62.80
48604;DHT22;32708;51.212;6.788;2023-03-14T00:30:06;12.60;61.60
48604;DHT22;32708;51.212;6.788;2023-03-14T00:32:33;12.60;58.10
48604;DHT22;32708;51.212;6.788;2023-03-14T00:35:01;12.60;59.30
48604;DHT22;32708;51.212;6.788;2023-03-14T00:37:27;12.50;68.90
48604;DHT22;32708;51.212;6.788;2023-03-14T00:39:53;12.40;97.50
48604;DHT22;32708;51.212;6.788;2023-03-14T00:42:19;12.00;99.90
48604;DHT22;32708;51.212;6.788;2023-03-14T00:44:45;11.10;99.90
48604;DHT22;32708;51.212;6.788;2023-03-14T00:47:11;10.60;99.90
48604;DHT22;32708;51.212;6.788;2023-03-14T00:49:37;10.40;99.90
48604;DHT22;32708;51.212;6.788;2023-03-14T00:52:03;10.40;99.90
48604;DHT22;32708;51.212;6.788;2023-03-14T00:54:29;10.40;99.90
48604;DHT22;32708;51.212;6.788;2023-03-14T00:56:56;10.30;99.90
48604;DHT22;32708;51.212;6.788;2023-03-14T00:59:22;10.20;99.90
48604;DHT22;32708;51.212;6.788;2023-03-14T01:01:48;10.30;99.90
48604;DHT22;32708;51.212;6.788;2023-03-14T01:04:14;10.20;99.90
48604;DHT22;32708;51.212;6.788;2023-03-14T01:06:40;10.00;99.90
48604;DHT22;32708;51.212;6.788;2023-03-14T01:09:06;10.00;99.90
48604;DHT22;32708;51.212;6.788;2023-03-14T01:11:34;10.00;99.90
48604;DHT22;32708;51.212;6.788;2023-03-14T01:14:01;9.90;99.90
48604;DHT22;32708;51.212;6.788;2023-03-14T01:16:31;10.10;99.90
48604;DHT22;32708;51.212;6.788;2023-03-14T01:19:00;10.10;99.90
48604;DHT22;32708;51.212;6.788;2023-03-14T01:21:34;10.20;99.90
48604;DHT22;32708;51.212;6.788;2023-03-14T01:24:03;10.20;99.90
48604;DHT22;32708;51.212;6.788;2023-03-14T01:26:31;10.10;99.90
48604;DHT22;32708;51.212;6.788;2023-03-14T01:28:58;10.10;99.90
48604;DHT22;32708;51.212;6.788;2023-03-14T01:31:27;10.20;99.90
48604;DHT22;32708;51.212;6.788;2023-03-14T01:33:53;10.30;99.90
48604;DHT22;32708;51.212;6.788;2023-03-14T01:36:19;10.30;99.90
48604;DHT22;32708;51.212;6.788;2023-03-14T01:38:46;10.30;99.90
48604;DHT22;32708;51.212;6.788;2023-03-14T01:41:17;10.30;99.90
48604;DHT22;32708;51.212;6.788;2023-03-14T01:43:44;10.40;99.90
48604;DHT22;32708;51.212;6.788;2023-03-14T01:49:02;10.60;99.90
48604;DHT22;32708;51.212;6.788;2023-03-14T01:51:56;10.50;99.90
48604;DHT22;32708;51.212;6.788;2023-03-14T01:57:20;10.60;99.90
48604;DHT22;32708;51.212;6.788;2023-03-14T01:59:54;10.70;99.90
48604;DHT22;32708;51.212;6.788;2023-03-14T02:02:23;10.80;99.90
48604;DHT22;32708;51.212;6.788;2023-03-14T02:04:52;10.70;99.90
48604;DHT22;32708;51.212;6.788;2023-03-14T02:10:18;10.90;99.90
48604;DHT22;32708;51.212;6.788;2023-03-14T02:12:47;10.90;99.90
48604;DHT22;32708;51.212;6.788;2023-03-14T02:15:46;10.90;99.90
48604;DHT22;32708;51.212;6.788;2023-03-14T02:18:36;10.90;99.90
48604;DHT22;32708;51.212;6.788;2023-03-14T02:24:24;10.90;99.90
48604;DHT22;32708;51.212;6.788;2023-03-14T02:29:58;11.00;99.90
48604;DHT22;32708;51.212;6.788;2023-03-14T02:32:30;11.10;99.90
48604;DHT22;32708;51.212;6.788;2023-03-14T02:35:00;11.10;99.90
48604;DHT22;32708;51.212;6.788;2023-03-14T02:40:19;11.20;99.90
48604;DHT22;32708;51.212;6.788;2023-03-14T02:42:49;11.10;99.90
48604;DHT22;32708;51.212;6.788;2023-03-14T02:47:55;11.00;99.90
48604;DHT22;32708;51.212;6.788;2023-03-14T02:50:29;11.00;99.90
48604;DHT22;32708;51.212;6.788;2023-03-14T02:52:56;11.00;99.90
48604;DHT22;32708;51.212;6.788;2023-03-14T02:55:23;10.80;99.90
48604;DHT22;32708;51.212;6.788;2023-03-14T02:57:53;10.90;99.90
48604;DHT22;32708;51.212;6.788;2023-03-14T03:00:19;11.00;99.90
48604;DHT22;32708;51.212;6.788;2023-03-14T03:02:46;11.00;99.90
48604;DHT22;32708;51.212;6.788;2023-03-14T03:05:14;11.10;99.90
48604;DHT22;32708;51.212;6.788;2023-03-14T03:07:40;11.20;99.90
48604;DHT22;32708;51.212;6.788;2023-03-14T03:10:06;11.20;99.90
48604;DHT22;32708;51.212;6.788;2023-03-14T03:12:32;11.30;99.90
48604;DHT22;32708;51.212;6.788;2023-03-14T03:14:58;11.20;99.90
48604;DHT22;32708;51.212;6.788;2023-03-14T03:17:24;11.10;99.90
48604;DHT22;32708;51.212;6.788;2023-03-14T03:19:50;11.30;99.90
48604;DHT22;32708;51.212;6.788;2023-03-14T03:22:17;11.20;99.90
48604;DHT22;32708;51.212;6.788;2023-03-14T03:24:42;11.30;99.90
48604;DHT22;32708;51.212;6.788;2023-03-14T03:27:10;11.10;99.90
48604;DHT22;32708;51.212;6.788;2023-03-14T03:29:36;11.00;99.90
48604;DHT22;32708;51.212;6.788;2023-03-14T03:32:02;11.00;99.90
48604;DHT22;32708;51.212;6.788;2023-03-14T03:34:28;11.00;99.90
48604;DHT22;32708;51.212;6.788;2023-03-14T03:36:58;10.80;99.90
48604;DHT22;32708;51.212;6.788;2023-03-14T03:39:26;10.90;99.90
48604;DHT22;32708;51.212;6.788;2023-03-14T03:41:52;10.40;99.90
48604;DHT22;32708;51.212;6.788;2023-03-14T03:44:19;10.30;99.90
48604;DHT22;32708;51.212;6.788;2023-03-14T03:46:45;10.30;99.90
48604;DHT22;32708;51.212;6.788;2023-03-14T03:49:11;10.30;99.90
48604;DHT22;32708;51.212;6.788;2023-03-14T03:51:37;10.20;99.90
48604;DHT22;32708;51.212;6.788;2023-03-14T03:54:03;10.10;99.90
48604;DHT22;32708;51.212;6.788;2023-03-14T03:56:32;10.10;99.90
48604;DHT22;32708;51.212;6.788;2023-03-14T03:58:59;10.10;99.90
48604;DHT22;32708;51.212;6.788;2023-03-14T04:01:25;10.00;99.90
48604;DHT22;32708;51.212;6.788;2023-03-14T04:03:54;10.10;99.90
48604;DHT22;32708;51.212;6.788;2023-03-14T04:06:21;10.20;99.90
48604;DHT22;32708;51.212;6.788;2023-03-14T04:08:49;10.00;99.90
48604;DHT22;32708;51.212;6.788;2023-03-14T04:11:36;10.10;99.90
48604;DHT22;32708;51.212;6.788;2023-03-14T04:14:10;10.20;99.90
48604;DHT22;32708;51.212;6.788;2023-03-14T04:16:36;10.30;99.90
48604;DHT22;32708;51.212;6.788;2023-03-14T04:19:10;10.40;99.90
48604;DHT22;32708;51.212;6.788;2023-03-14T04:21:37;10.50;99.90
48604;DHT22;32708;51.212;6.788;2023-03-14T04:24:08;10.60;99.90
48604;DHT22;32708;51.212;6.788;2023-03-14T04:26:35;10.70;99.90
48604;DHT22;32708;51.212;6.788;2023-03-14T04:29:01;10.60;99.90
48604;DHT22;32708;51.212;6.788;2023-03-14T04:31:27;10.60;99.90
48604;DHT22;32708;51.212;6.788;2023-03-14T04:33:53;10.60;99.90
48604;DHT22;32708;51.212;6.788;2023-03-14T04:36:26;10.50;99.90
48604;DHT22;32708;51.212;6.788;2023-03-14T04:38:52;10.40;99.90
48604;DHT22;32708;51.212;6.788;2023-03-14T04:41:20;10.40;99.90
48604;DHT22;32708;51.212;6.788;2023-03-14T04:43:46;10.40;99.90
48604;DHT22;32708;51.212;6.788;2023-03-14T04:46:12;10.50;99.90
48604;DHT22;32708;51.212;6.788;2023-03-14T04:48:39;10.50;99.90
48604;DHT22;32708;51.212;6.788;2023-03-14T04:51:07;10.50;99.90
48604;DHT22;32708;51.212;6.788;2023-03-14T04:53:34;10.50;99.90
48604;DHT22;32708;51.212;6.788;2023-03-14T04:56:03;10.60;99.90
48604;DHT22;32708;51.212;6.788;2023-03-14T04:58:37;10.60;99.90
48604;DHT22;32708;51.212;6.788;2023-03-14T05:01:05;10.50;99.90
48604;DHT22;32708;51.212;6.788;2023-03-14T05:03:34;10.50;99.90
48604;DHT22;32708;51.212;6.788;2023-03-14T05:06:13;10.40;99.90
48604;DHT22;32708;51.212;6.788;2023-03-14T05:09:02;10.40;99.90
48604;DHT22;32708;51.212;6.788;2023-03-14T05:11:57;10.40;99.90
48604;DHT22;32708;51.212;6.788;2023-03-14T05:14:32;10.50;99.90
48604;DHT22;32708;51.212;6.788;2023-03-14T05:17:21;10.40;99.90
48604;DHT22;32708;51.212;6.788;2023-03-14T05:20:06;10.30;99.90
48604;DHT22;32708;51.212;6.788;2023-03-14T05:22:56;10.30;99.90
48604;DHT22;32708;51.212;6.788;2023-03-14T05:25:44;10.30;99.90
48604;DHT22;32708;51.212;6.788;2023-03-14T05:28:31;10.40;99.90
48604;DHT22;32708;51.212;6.788;2023-03-14T05:31:23;10.60;99.90
48604;DHT22;32708;51.212;6.788;2023-03-14T05:33:56;10.40;99.90
48604;DHT22;32708;51.212;6.788;2023-03-14T05:36:43;10.40;99.90
48604;DHT22;32708;51.212;6.788;2023-03-14T05:39:38;10.50;99.90
48604;DHT22;32708;51.212;6.788;2023-03-14T05:42:17;10.50;99.90
48604;DHT22;32708;51.212;6.788;2023-03-14T05:45:03;10.60;99.90
48604;DHT22;32708;51.212;6.788;2023-03-14T05:47:44;10.60;99.90
48604;DHT22;32708;51.212;6.788;2023-03-14T05:50:29;10.50;99.90
48604;DHT22;32708;51.212;6.788;2023-03-14T05:53:20;10.60;99.90
48604;DHT22;32708;51.212;6.788;2023-03-14T05:55:56;10.70;99.90
48604;DHT22;32708;51.212;6.788;2023-03-14T05:58:33;10.60;99.90
48604;DHT22;32708;51.212;6.788;2023-03-14T06:01:37;10.60;99.90
48604;DHT22;32708;51.212;6.788;2023-03-14T06:04:10;10.60;99.90
48604;DHT22;32708;51.212;6.788;2023-03-14T06:06:36;10.70;99.90
48604;DHT22;32708;51.212;6.788;2023-03-14T06:09:03;10.70;99.90
48604;DHT22;32708;51.212;6.788;2023-03-14T06:11:31;10.60;99.90
48604;DHT22;32708;51.212;6.788;2023-03-14T06:13:57;10.70;99.90
48604;DHT22;32708;51.212;6.788;2023-03-14T06:16:24;10.70;99.90
48604;DHT22;32708;51.212;6.788;2023-03-14T06:18:52;10.70;99.90
48604;DHT22;32708;51.212;6.788;2023-03-14T06:21:19;10.70;99.90
48604;DHT22;32708;51.212;6.788;2023-03-14T06:23:47;10.80;99.90
48604;DHT22;32708;51.212;6.788;2023-03-14T06:26:13;10.70;99.90
48604;DHT22;32708;51.212;6.788;2023-03-14T06:28:39;10.80;99.90
48604;DHT22;32708;51.212;6.788;2023-03-14T06:31:05;10.70;99.90
48604;DHT22;32708;51.212;6.788;2023-03-14T06:33:39;10.80;99.90
48604;DHT22;32708;51.212;6.788;2023-03-14T06:36:07;10.90;99.90
48604;DHT22;32708;51.212;6.788;2023-03-14T06:38:34;10.90;99.90
48604;DHT22;32708;51.212;6.788;2023-03-14T06:41:04;10.90;99.90
48604;DHT22;32708;51.212;6.788;2023-03-14T06:43:36;10.80;99.90
48604;DHT22;32708;51.212;6.788;2023-03-14T06:46:03;10.90;99.90
48604;DHT22;32708;51.212;6.788;2023-03-14T06:48:31;10.90;99.90
48604;DHT22;32708;51.212;6.788;2023-03-14T06:50:58;11.00;99.90
48604;DHT22;32708;51.212;6.788;2023-03-14T06:53:24;11.10;99.90
48604;DHT22;32708;51.212;6.788;2023-03-14T06:55:50;11.10;99.90
48604;DHT22;32708;51.212;6.788;2023-03-14T06:58:17;11.10;99.90
48604;DHT22;32708;51.212;6.788;2023-03-14T07:00:45;11.00;99.90
48604;DHT22;32708;51.212;6.788;2023-03-14T07:03:14;11.10;99.90
48604;DHT22;32708;51.212;6.788;2023-03-14T07:05:43;11.10;99.90
48604;DHT22;32708;51.212;6.788;2023-03-14T07:08:10;11.10;99.90
48604;DHT22;32708;51.212;6.788;2023-03-14T07:10:36;11.00;99.90
48604;DHT22;32708;51.212;6.788;2023-03-14T07:13:03;11.00;99.90
48604;DHT22;32708;51.212;6.788;2023-03-14T07:15:33;11.00;99.90
48604;DHT22;32708;51.212;6.788;2023-03-14T07:18:04;11.00;99.90
48604;DHT22;32708;51.212;6.788;2023-03-14T07:20:30;11.10;99.90
48604;DHT22;32708;51.212;6.788;2023-03-14T07:22:58;11.10;99.90
48604;DHT22;32708;51.212;6.788;2023-03-14T07:25:49;11.00;99.90
48604;DHT22;32708;51.212;6.788;2023-03-14T07:28:18;11.10;99.90
48604;DHT22;32708;51.212;6.788;2023-03-14T07:30:47;11.10;99.90
48604;DHT22;32708;51.212;6.788;2023-03-14T07:33:18;11.10;99.90
48604;DHT22;32708;51.212;6.788;2023-03-14T07:35:44;11.20;99.90
48604;DHT22;32708;51.212;6.788;2023-03-14T07:38:10;11.20;99.90
48604;DHT22;32708;51.212;6.788;2023-03-14T07:40:43;11.40;99.90
48604;DHT22;32708;51.212;6.788;2023-03-14T07:43:09;11.30;99.90
48604;DHT22;32708;51.212;6.788;2023-03-14T07:45:46;11.30;99.90
48604;DHT22;32708;51.212;6.788;2023-03-14T07:48:12;11.30;99.90
48604;DHT22;32708;51.212;6.788;2023-03-14T07:50:38;11.40;99.90
48604;DHT22;32708;51.212;6.788;2023-03-14T07:53:04;11.40;99.90
48604;DHT22;32708;51.212;6.788;2023-03-14T07:55:30;11.50;99.90
48604;DHT22;32708;51.212;6.788;2023-03-14T07:57:56;11.50;99.90
48604;DHT22;32708;51.212;6.788;2023-03-14T08:00:22;11.60;99.90
48604;DHT22;32708;51.212;6.788;2023-03-14T08:02:48;11.70;99.90
48604;DHT22;32708;51.212;6.788;2023-03-14T08:05:14;11.70;99.90
48604;DHT22;32708;51.212;6.788;2023-03-14T08:07:40;11.90;99.90
48604;DHT22;32708;51.212;6.788;2023-03-14T08:10:07;11.80;99.90
48604;DHT22;32708;51.212;6.788;2023-03-14T08:12:33;11.90;99.90
48604;DHT22;32708;51.212;6.788;2023-03-14T08:14:59;11.90;99.90
48604;DHT22;32708;51.212;6.788;2023-03-14T08:17:25;12.10;99.90
48604;DHT22;32708;51.212;6.788;2023-03-14T08:19:51;12.20;99.90
48604;DHT22;32708;51.212;6.788;2023-03-14T08:22:17;12.00;99.90
48604;DHT22;32708;51.212;6.788;2023-03-14T08:24:43;11.90;99.90
48604;DHT22;32708;51.212;6.788;2023-03-14T08:27:09;12.00;99.90
48604;DHT22;32708;51.212;6.788;2023-03-14T08:29:35;12.10;99.90
48604;DHT22;32708;51.212;6.788;2023-03-14T08:32:01;12.00;99.90
48604;DHT22;32708;51.212;6.788;2023-03-14T08:34:27;12.00;99.90
48604;DHT22;32708;51.212;6.788;2023-03-14T08:36:53;11.90;99.90
48604;DHT22;32708;51.212;6.788;2023-03-14T08:39:21;11.90;99.90
48604;DHT22;32708;51.212;6.788;2023-03-14T08:41:49;11.90;99.90
48604;DHT22;32708;51.212;6.788;2023-03-14T08:44:15;12.00;99.90
48604;DHT22;32708;51.212;6.788;2023-03-14T08:46:41;11.90;99.90
48604;DHT22;32708;51.212;6.788;2023-03-14T08:49:07;12.00;99.90
48604;DHT22;32708;51.212;6.788;2023-03-14T08:51:33;12.00;99.90
48604;DHT22;32708;51.212;6.788;2023-03-14T08:53:59;11.80;99.90
48604;DHT22;32708;51.212;6.788;2023-03-14T08:56:25;11.80;99.90
48604;DHT22;32708;51.212;6.788;2023-03-14T08:58:51;11.70;99.90
48604;DHT22;32708;51.212;6.788;2023-03-14T09:01:17;11.50;99.90
48604;DHT22;32708;51.212;6.788;2023-03-14T09:03:44;11.40;99.90
48604;DHT22;32708;51.212;6.788;2023-03-14T09:06:11;11.20;99.90
48604;DHT22;32708;51.212;6.788;2023-03-14T09:08:37;11.30;99.90
48604;DHT22;32708;51.212;6.788;2023-03-14T09:11:07;11.30;99.90
48604;DHT22;32708;51.212;6.788;2023-03-14T09:13:33;11.40;99.90
48604;DHT22;32708;51.212;6.788;2023-03-14T09:15:59;11.40;99.90
48604;DHT22;32708;51.212;6.788;2023-03-14T09:18:25;11.40;99.90
48604;DHT22;32708;51.212;6.788;2023-03-14T09:20:51;11.40;99.90
48604;DHT22;32708;51.212;6.788;2023-03-14T09:23:17;11.20;99.90
48604;DHT22;32708;51.212;6.788;2023-03-14T09:25:43;10.90;99.90
48604;DHT22;32708;51.212;6.788;2023-03-14T09:28:09;10.50;99.90
48604;DHT22;32708;51.212;6.788;2023-03-14T09:30:35;10.30;99.90
48604;DHT22;32708;51.212;6.788;2023-03-14T09:33:01;9.90;99.90
48604;DHT22;32708;51.212;6.788;2023-03-14T09:35:27;9.70;99.90
48604;DHT22;32708;51.212;6.788;2023-03-14T09:37:53;9.80;99.90
48604;DHT22;32708;51.212;6.788;2023-03-14T09:40:20;9.60;99.90
48604;DHT22;32708;51.212;6.788;2023-03-14T09:42:55;9.50;99.90
48604;DHT22;32708;51.212;6.788;2023-03-14T09:45:26;9.50;99.90
48604;DHT22;32708;51.212;6.788;2023-03-14T09:47:55;9.50;99.90
48604;DHT22;32708;51.212;6.788;2023-03-14T09:50:21;9.40;99.90
48604;DHT22;32708;51.212;6.788;2023-03-14T09:52:56;9.40;99.90
48604;DHT22;32708;51.212;6.788;2023-03-14T09:55:24;9.40;99.90
48604;DHT22;32708;51.212;6.788;2023-03-14T09:57:56;9.30;99.90
48604;DHT22;32708;51.212;6.788;2023-03-14T10:00:29;9.30;99.90
48604;DHT22;32708;51.212;6.788;2023-03-14T10:05:43;9.40;99.90
48604;DHT22;32708;51.212;6.788;2023-03-14T10:08:13;9.50;99.90
48604;DHT22;32708;51.212;6.788;2023-03-14T10:10:41;9.50;99.90
48604;DHT22;32708;51.212;6.788;2023-03-14T10:13:26;9.40;99.90
48604;DHT22;32708;51.212;6.788;2023-03-14T10:16:01;9.40;99.90
48604;DHT22;32708;51.212;6.788;2023-03-14T10:18:30;9.40;99.90
48604;DHT22;32708;51.212;6.788;2023-03-14T10:23:34;9.50;99.90
48604;DHT22;32708;51.212;6.788;2023-03-14T10:26:03;9.60;99.90
48604;DHT22;32708;51.212;6.788;2023-03-14T10:28:39;9.50;99.90
48604;DHT22;32708;51.212;6.788;2023-03-14T10:31:07;9.50;99.90
48604;DHT22;32708;51.212;6.788;2023-03-14T10:33:36;9.70;99.90
48604;DHT22;32708;51.212;6.788;2023-03-14T10:36:06;9.50;99.90
48604;DHT22;32708;51.212;6.788;2023-03-14T10:38:41;9.40;99.90
48604;DHT22;32708;51.212;6.788;2023-03-14T10:41:30;9.30;99.90
48604;DHT22;32708;51.212;6.788;2023-03-14T10:43:59;9.10;99.90
48604;DHT22;32708;51.212;6.788;2023-03-14T10:46:31;9.10;99.90
48604;DHT22;32708;51.212;6.788;2023-03-14T10:49:28;9.00;99.90
48604;DHT22;32708;51.212;6.788;2023-03-14T10:51:55;9.00;99.90
48604;DHT22;32708;51.212;6.788;2023-03-14T10:54:22;9.10;99.90
48604;DHT22;32708;51.212;6.788;2023-03-14T10:57:00;9.30;99.90
48604;DHT22;32708;51.212;6.788;2023-03-14T10:59:36;9.20;99.90
48604;DHT22;32708;51.212;6.788;2023-03-14T11:02:34;9.10;99.90
48604;DHT22;32708;51.212;6.788;2023-03-14T11:07:42;9.00;99.90
48604;DHT22;32708;51.212;6.788;2023-03-14T11:10:34;8.70;99.90
48604;DHT22;32708;51.212;6.788;2023-03-14T11:13:23;8.70;99.90
48604;DHT22;32708;51.212;6.788;2023-03-14T11:27:18;8.60;99.90
48604;DHT22;32708;51.212;6.788;2023-03-14T11:29:51;8.60;99.90
48604;DHT22;32708;51.212;6.788;2023-03-14T11:32:40;8.60;99.90
48604;DHT22;32708;51.212;6.788;2023-03-14T11:35:22;8.30;99.90
48604;DHT22;32708;51.212;6.788;2023-03-14T11:38:03;8.30;99.90
48604;DHT22;32708;51.212;6.788;2023-03-14T11:40:33;8.50;99.90
48604;DHT22;32708;51.212;6.788;2023-03-14T11:43:12;8.50;99.90
48604;DHT22;32708;51.212;6.788;2023-03-14T11:45:42;8.60;99.90
48604;DHT22;32708;51.212;6.788;2023-03-14T11:51:08;8.50;99.90
48604;DHT22;32708;51.212;6.788;2023-03-14T11:56:52;8.60;99.90
48604;DHT22;32708;51.212;6.788;2023-03-14T12:02:27;8.70;99.90
48604;DHT22;32708;51.212;6.788;2023-03-14T12:11:00;8.50;99.90
48604;DHT22;32708;51.212;6.788;2023-03-14T12:13:32;8.50;99.90
48604;DHT22;32708;51.212;6.788;2023-03-14T12:16:03;8.50;99.90
48604;DHT22;32708;51.212;6.788;2023-03-14T12:18:35;8.50;99.90
48604;DHT22;32708;51.212;6.788;2023-03-14T12:21:07;8.20;99.90
48604;DHT22;32708;51.212;6.788;2023-03-14T12:23:53;8.40;99.90
48604;DHT22;32708;51.212;6.788;2023-03-14T12:26:22;8.60;99.90
48604;DHT22;32708;51.212;6.788;2023-03-14T12:42:01;9.50;99.90
48604;DHT22;32708;51.212;6.788;2023-03-14T12:47:00;9.50;93.20
48604;DHT22;32708;51.212;6.788;2023-03-14T12:49:40;9.30;83.80
48604;DHT22;32708;51.212;6.788;2023-03-14T12:52:20;9.30;80.00
48604;DHT22;32708;51.212;6.788;2023-03-14T12:54:49;9.40;74.70
48604;DHT22;32708;51.212;6.788;2023-03-14T13:00:00;9.20;97.30
48604;DHT22;32708;51.212;6.788;2023-03-14T13:02:42;9.10;99.90
48604;DHT22;32708;51.212;6.788;2023-03-14T13:05:21;8.80;99.90
48604;DHT22;32708;51.212;6.788;2023-03-14T13:10:22;7.90;99.90
48604;DHT22;32708;51.212;6.788;2023-03-14T13:18:13;8.10;99.90
48604;DHT22;32708;51.212;6.788;2023-03-14T13:20:46;8.20;99.90
48604;DHT22;32708;51.212;6.788;2023-03-14T13:23:26;8.40;99.90
48604;DHT22;32708;51.212;6.788;2023-03-14T13:25:54;8.30;99.90
48604;DHT22;32708;51.212;6.788;2023-03-14T13:28:20;8.40;99.90
48604;DHT22;32708;51.212;6.788;2023-03-14T13:30:48;8.50;99.90
48604;DHT22;32708;51.212;6.788;2023-03-14T13:33:22;8.60;99.90
48604;DHT22;32708;51.212;6.788;2023-03-14T13:38:26;8.80;99.90
48604;DHT22;32708;51.212;6.788;2023-03-14T13:40:55;8.90;99.90
48604;DHT22;32708;51.212;6.788;2023-03-14T13:43:33;9.00;99.90
48604;DHT22;32708;51.212;6.788;2023-03-14T13:46:13;8.90;99.90
48604;DHT22;32708;51.212;6.788;2023-03-14T13:48:49;8.80;99.90
48604;DHT22;32708;51.212;6.788;2023-03-14T13:51:20;8.70;99.90
48604;DHT22;32708;51.212;6.788;2023-03-14T13:53:50;8.70;99.90
48604;DHT22;32708;51.212;6.788;2023-03-14T13:56:18;8.50;99.90
48604;DHT22;32708;51.212;6.788;2023-03-14T13:58:44;8.30;99.90
48604;DHT22;32708;51.212;6.788;2023-03-14T14:01:18;8.20;99.90
48604;DHT22;32708;51.212;6.788;2023-03-14T14:03:53;8.30;99.90
48604;DHT22;32708;51.212;6.788;2023-03-14T14:06:32;8.30;99.90
48604;DHT22;32708;51.212;6.788;2023-03-14T14:09:28;8.40;99.90
48604;DHT22;32708;51.212;6.788;2023-03-14T14:11:55;8.70;99.90
48604;DHT22;32708;51.212;6.788;2023-03-14T14:14:30;8.70;99.90
48604;DHT22;32708;51.212;6.788;2023-03-14T14:16:59;8.60;99.90
48604;DHT22;32708;51.212;6.788;2023-03-14T14:19:29;8.50;99.90
48604;DHT22;32708;51.212;6.788;2023-03-14T14:21:57;8.50;99.90
48604;DHT22;32708;51.212;6.788;2023-03-14T14:24:28;8.50;99.90
48604;DHT22;32708;51.212;6.788;2023-03-14T14:27:00;8.70;99.90
48604;DHT22;32708;51.212;6.788;2023-03-14T14:29:29;8.70;95.90
48604;DHT22;32708;51.212;6.788;2023-03-14T14:35:07;8.70;95.00
48604;DHT22;32708;51.212;6.788;2023-03-14T14:37:41;8.90;70.60
48604;DHT22;32708;51.212;6.788;2023-03-14T14:40:19;8.90;19.90
48604;DHT22;32708;51.212;6.788;2023-03-14T14:42:47;9.00;8.10
48604;DHT22;32708;51.212;6.788;2023-03-14T14:45:18;9.30;1.00
48604;DHT22;32708;51.212;6.788;2023-03-14T14:48:06;9.40;1.00
48604;DHT22;32708;51.212;6.788;2023-03-14T14:50:39;9.50;99.90
48604;DHT22;32708;51.212;6.788;2023-03-14T14:53:31;9.40;99.90
48604;DHT22;32708;51.212;6.788;2023-03-14T14:56:20;9.60;12.20
48604;DHT22;32708;51.212;6.788;2023-03-14T14:58:55;9.40;99.90
48604;DHT22;32708;51.212;6.788;2023-03-14T15:01:25;9.30;1.00
48604;DHT22;32708;51.212;6.788;2023-03-14T15:03:57;9.40;1.00
48604;DHT22;32708;51.212;6.788;2023-03-14T15:06:28;9.30;1.00
48604;DHT22;32708;51.212;6.788;2023-03-14T15:08:54;9.30;99.90
48604;DHT22;32708;51.212;6.788;2023-03-14T15:11:23;9.30;99.90
48604;DHT22;32708;51.212;6.788;2023-03-14T15:13:53;9.30;1.00
48604;DHT22;32708;51.212;6.788;2023-03-14T15:16:22;9.20;71.20
48604;DHT22;32708;51.212;6.788;2023-03-14T15:18:56;9.20;1.00
48604;DHT22;32708;51.212;6.788;2023-03-14T15:21:25;9.30;99.90
48604;DHT22;32708;51.212;6.788;2023-03-14T15:23:51;9.30;99.90
48604;DHT22;32708;51.212;6.788;2023-03-14T15:26:24;9.30;99.90
48604;DHT22;32708;51.212;6.788;2023-03-14T15:28:50;9.20;1.00
48604;DHT22;32708;51.212;6.788;2023-03-14T15:31:17;9.30;1.00
48604;DHT22;32708;51.212;6.788;2023-03-14T15:33:45;9.10;99.90
48604;DHT22;32708;51.212;6.788;2023-03-14T15:36:32;9.10;99.90
48604;DHT22;32708;51.212;6.788;2023-03-14T15:38:59;9.30;99.90
48604;DHT22;32708;51.212;6.788;2023-03-14T15:41:26;9.30;99.90
48604;DHT22;32708;51.212;6.788;2023-03-14T15:43:52;9.30;99.90
48604;DHT22;32708;51.212;6.788;2023-03-14T15:46:18;9.30;99.90
48604;DHT22;32708;51.212;6.788;2023-03-14T15:48:45;9.30;99.90
48604;DHT22;32708;51.212;6.788;2023-03-14T15:51:12;9.10;99.90
48604;DHT22;32708;51.212;6.788;2023-03-14T15:53:39;9.10;99.90
48604;DHT22;32708;51.212;6.788;2023-03-14T15:56:09;9.20;99.90
48604;DHT22;32708;51.212;6.788;2023-03-14T15:58:36;9.10;92.60
48604;DHT22;32708;51.212;6.788;2023-03-14T16:01:07;9.10;99.90
48604;DHT22;32708;51.212;6.788;2023-03-14T16:03:36;9.10;99.90
48604;DHT22;32708;51.212;6.788;2023-03-14T16:06:03;9.00;18.60
48604;DHT22;32708;51.212;6.788;2023-03-14T16:08:30;9.10;99.90
48604;DHT22;32708;51.212;6.788;2023-03-14T16:10:58;9.20;99.90
48604;DHT22;32708;51.212;6.788;2023-03-14T16:13:24;9.00;99.90
48604;DHT22;32708;51.212;6.788;2023-03-14T16:16:02;9.00;99.90
48604;DHT22;32708;51.212;6.788;2023-03-14T16:18:32;8.70;7.10
48604;DHT22;32708;51.212;6.788;2023-03-14T16:21:01;8.80;27.80
48604;DHT22;32708;51.212;6.788;2023-03-14T16:23:29;8.70;10.90
48604;DHT22;32708;51.212;6.788;2023-03-14T16:25:57;8.80;1.00
48604;DHT22;32708;51.212;6.788;2023-03-14T16:28:24;8.70;1.00
48604;DHT22;32708;51.212;6.788;2023-03-14T16:30:51;8.70;1.00
48604;DHT22;32708;51.212;6.788;2023-03-14T16:33:17;8.50;1.00
48604;DHT22;32708;51.212;6.788;2023-03-14T16:35:57;8.50;1.00
48604;DHT22;32708;51.212;6.788;2023-03-14T16:38:27;8.50;1.00
48604;DHT22;32708;51.212;6.788;2023-03-14T16:40:58;8.50;1.00
48604;DHT22;32708;51.212;6.788;2023-03-14T16:43:25;8.50;1.00
48604;DHT22;32708;51.212;6.788;2023-03-14T16:45:51;8.50;1.00
48604;DHT22;32708;51.212;6.788;2023-03-14T16:48:17;8.50;1.00
48604;DHT22;32708;51.212;6.788;2023-03-14T16:50:43;8.40;1.00
48604;DHT22;32708;51.212;6.788;2023-03-14T16:53:09;8.50;20.30
48604;DHT22;32708;51.212;6.788;2023-03-14T16:55:40;8.30;1.00
48604;DHT22;32708;51.212;6.788;2023-03-14T16:58:07;8.30;1.00
48604;DHT22;32708;51.212;6.788;2023-03-14T17:00:33;8.20;1.00
48604;DHT22;32708;51.212;6.788;2023-03-14T17:02:59;8.20;1.00
48604;DHT22;32708;51.212;6.788;2023-03-14T17:05:25;8.20;90.10
48604;DHT22;32708;51.212;6.788;2023-03-14T17:07:51;8.20;15.90
48604;DHT22;32708;51.212;6.788;2023-03-14T17:10:17;8.30;16.20
48604;DHT22;32708;51.212;6.788;2023-03-14T17:12:44;8.20;1.00
48604;DHT22;32708;51.212;6.788;2023-03-14T17:15:11;8.20;83.20
48604;DHT22;32708;51.212;6.788;2023-03-14T17:17:38;8.30;33.90
48604;DHT22;32708;51.212;6.788;2023-03-14T17:20:05;8.30;66.20
48604;DHT22;32708;51.212;6.788;2023-03-14T17:22:32;8.30;99.90
48604;DHT22;32708;51.212;6.788;2023-03-14T17:24:58;8.40;99.90